Bredlow Corner, Arkansas
Current Conditions -  °F | °C
As of 8:55 PM on Sunday 21 Dec 2014 (Local Time) from KSGT Reporting Station
Broken Clouds Broken Clouds  
Wind Chill: 43°   Ceiling: 8500
Heat Index: 46°   Visibility: NA
Dew Point: 36°   Wind: 7mph
Humidity: 66%   Direction: 130°SE
Pressure: 29.94"   Gusts: NA
Location:  34.5894°N, 91.9107°W
Report Text: KSGT 220255Z 13006KT BKN085 08/02 A2994 RMK AO1 57010
Loading
Personal Weather Stations






























Interactive Weather Map New forecast layout! Learn more

10-Day Weather Forecast

Advertisements
Track Severe Weather on mobile